sensor_id;sensor_type;location;lat;lon;timestamp;pressure;altitude;pressure_sealevel;temperature;humidity
40948;BME280;49382;-25.924;28.194;2023-01-08T00:01:22;85343.17;;;20.11;38.68
40948;BME280;49382;-25.924;28.194;2023-01-08T00:03:48;85339.42;;;18.04;41.68
40948;BME280;49382;-25.924;28.194;2023-01-08T00:06:16;85345.94;;;18.51;40.76
40948;BME280;49382;-25.924;28.194;2023-01-08T00:08:40;85354.84;;;19.33;40.06
40948;BME280;49382;-25.924;28.194;2023-01-08T00:11:05;85349.89;;;18.69;41.04
40948;BME280;49382;-25.924;28.194;2023-01-08T00:13:31;85348.16;;;20.43;38.14
40948;BME280;49382;-25.924;28.194;2023-01-08T00:16:00;85344.71;;;18.62;40.28
40948;BME280;49382;-25.924;28.194;2023-01-08T00:18:23;85336.72;;;19.59;39.06
40948;BME280;49382;-25.924;28.194;2023-01-08T00:20:48;85325.70;;;17.76;41.92
40948;BME280;49382;-25.924;28.194;2023-01-08T00:23:15;85327.80;;;18.37;41.55
40948;BME280;49382;-25.924;28.194;2023-01-08T00:25:40;85328.72;;;19.35;40.30
40948;BME280;49382;-25.924;28.194;2023-01-08T00:28:05;85328.12;;;17.74;42.78
40948;BME280;49382;-25.924;28.194;2023-01-08T00:30:31;85327.92;;;17.90;42.78
40948;BME280;49382;-25.924;28.194;2023-01-08T00:32:56;85320.80;;;17.75;43.21
40948;BME280;49382;-25.924;28.194;2023-01-08T00:35:22;85324.56;;;19.85;39.61
40948;BME280;49382;-25.924;28.194;2023-01-08T00:37:49;85321.25;;;19.99;38.52
40948;BME280;49382;-25.924;28.194;2023-01-08T00:40:14;85316.26;;;21.06;37.05
40948;BME280;49382;-25.924;28.194;2023-01-08T00:42:40;85313.63;;;19.95;38.65
40948;BME280;49382;-25.924;28.194;2023-01-08T00:45:07;85314.08;;;20.42;37.91
40948;BME280;49382;-25.924;28.194;2023-01-08T00:47:32;85315.21;;;19.45;39.50
40948;BME280;49382;-25.924;28.194;2023-01-08T00:49:57;85318.20;;;20.27;38.02
40948;BME280;49382;-25.924;28.194;2023-01-08T00:52:23;85321.52;;;18.00;41.00
40948;BME280;49382;-25.924;28.194;2023-01-08T00:54:48;85320.71;;;18.13;41.18
40948;BME280;49382;-25.924;28.194;2023-01-08T00:57:14;85317.63;;;18.42;41.14
40948;BME280;49382;-25.924;28.194;2023-01-08T00:59:40;85309.31;;;17.88;42.01
40948;BME280;49382;-25.924;28.194;2023-01-08T01:02:05;85307.85;;;20.10;38.89
40948;BME280;49382;-25.924;28.194;2023-01-08T01:04:31;85306.65;;;19.02;40.23
40948;BME280;49382;-25.924;28.194;2023-01-08T01:06:57;85310.35;;;17.66;42.27
40948;BME280;49382;-25.924;28.194;2023-01-08T01:09:23;85311.14;;;19.81;38.79
40948;BME280;49382;-25.924;28.194;2023-01-08T01:11:49;85302.56;;;19.68;38.75
40948;BME280;49382;-25.924;28.194;2023-01-08T01:14:15;85304.06;;;20.59;37.39
40948;BME280;49382;-25.924;28.194;2023-01-08T01:16:41;85303.74;;;18.82;39.55
40948;BME280;49382;-25.924;28.194;2023-01-08T01:19:06;85311.24;;;20.70;36.95
40948;BME280;49382;-25.924;28.194;2023-01-08T01:21:32;85314.85;;;20.39;36.81
40948;BME280;49382;-25.924;28.194;2023-01-08T01:23:59;85310.50;;;18.62;39.54
40948;BME280;49382;-25.924;28.194;2023-01-08T01:26:25;85308.91;;;18.98;39.62
40948;BME280;49382;-25.924;28.194;2023-01-08T01:28:51;85298.90;;;18.49;39.62
40948;BME280;49382;-25.924;28.194;2023-01-08T01:31:15;85298.87;;;16.94;42.58
40948;BME280;49382;-25.924;28.194;2023-01-08T01:33:41;85297.79;;;17.69;41.56
40948;BME280;49382;-25.924;28.194;2023-01-08T01:36:08;85302.66;;;20.54;36.99
40948;BME280;49382;-25.924;28.194;2023-01-08T01:38:33;85300.47;;;20.37;37.05
40948;BME280;49382;-25.924;28.194;2023-01-08T01:40:59;85297.79;;;19.34;38.39
40948;BME280;49382;-25.924;28.194;2023-01-08T01:43:33;85293.91;;;19.70;37.94
40948;BME280;49382;-25.924;28.194;2023-01-08T01:45:50;85296.39;;;20.08;37.18
40948;BME280;49382;-25.924;28.194;2023-01-08T01:48:16;85292.31;;;19.78;37.40
40948;BME280;49382;-25.924;28.194;2023-01-08T01:50:43;85294.02;;;20.71;36.09
40948;BME280;49382;-25.924;28.194;2023-01-08T01:53:11;85294.21;;;17.73;40.52
40948;BME280;49382;-25.924;28.194;2023-01-08T01:55:35;85300.91;;;19.07;39.08
40948;BME280;49382;-25.924;28.194;2023-01-08T01:58:04;85299.56;;;18.22;40.00
40948;BME280;49382;-25.924;28.194;2023-01-08T02:00:26;85296.97;;;18.20;40.00
40948;BME280;49382;-25.924;28.194;2023-01-08T02:02:51;85291.66;;;19.38;38.68
40948;BME280;49382;-25.924;28.194;2023-01-08T02:05:17;85293.53;;;17.83;40.43
40948;BME280;49382;-25.924;28.194;2023-01-08T02:07:48;85300.54;;;18.34;40.16
40948;BME280;49382;-25.924;28.194;2023-01-08T02:10:11;85300.35;;;18.15;39.82
40948;BME280;49382;-25.924;28.194;2023-01-08T02:12:37;85302.97;;;16.80;42.05
40948;BME280;49382;-25.924;28.194;2023-01-08T02:15:04;85305.81;;;18.78;39.46
40948;BME280;49382;-25.924;28.194;2023-01-08T02:17:32;85308.95;;;19.87;37.47
40948;BME280;49382;-25.924;28.194;2023-01-08T02:19:54;85314.74;;;20.48;36.32
40948;BME280;49382;-25.924;28.194;2023-01-08T02:22:24;85309.60;;;19.80;37.45
40948;BME280;49382;-25.924;28.194;2023-01-08T02:24:52;85310.12;;;19.96;37.19
40948;BME280;49382;-25.924;28.194;2023-01-08T02:27:09;85306.30;;;18.66;38.58
40948;BME280;49382;-25.924;28.194;2023-01-08T02:29:35;85308.38;;;18.86;38.20
40948;BME280;49382;-25.924;28.194;2023-01-08T02:32:00;85310.91;;;19.50;37.54
40948;BME280;49382;-25.924;28.194;2023-01-08T02:34:26;85308.91;;;20.24;36.32
40948;BME280;49382;-25.924;28.194;2023-01-08T02:36:54;85312.40;;;19.98;36.21
40948;BME280;49382;-25.924;28.194;2023-01-08T02:39:26;85315.39;;;20.16;36.51
40948;BME280;49382;-25.924;28.194;2023-01-08T02:41:52;85316.09;;;19.17;37.58
40948;BME280;49382;-25.924;28.194;2023-01-08T02:44:11;85317.54;;;20.23;36.01
40948;BME280;49382;-25.924;28.194;2023-01-08T02:46:35;85318.29;;;19.46;37.29
40948;BME280;49382;-25.924;28.194;2023-01-08T02:49:03;85320.97;;;19.45;37.36
40948;BME280;49382;-25.924;28.194;2023-01-08T02:51:29;85323.81;;;19.36;37.11
40948;BME280;49382;-25.924;28.194;2023-01-08T02:53:56;85332.79;;;17.36;39.54
40948;BME280;49382;-25.924;28.194;2023-01-08T02:56:20;85324.02;;;17.46;40.54
40948;BME280;49382;-25.924;28.194;2023-01-08T02:58:44;85324.70;;;17.94;39.31
40948;BME280;49382;-25.924;28.194;2023-01-08T03:01:13;85327.31;;;19.17;37.60
40948;BME280;49382;-25.924;28.194;2023-01-08T03:03:37;85322.16;;;18.20;38.73
40948;BME280;49382;-25.924;28.194;2023-01-08T03:06:04;85322.85;;;19.97;36.27
40948;BME280;49382;-25.924;28.194;2023-01-08T03:08:27;85323.13;;;19.15;37.14
40948;BME280;49382;-25.924;28.194;2023-01-08T03:10:59;85328.94;;;17.63;39.39
40948;BME280;49382;-25.924;28.194;2023-01-08T03:13:22;85326.14;;;18.22;38.59
40948;BME280;49382;-25.924;28.194;2023-01-08T03:15:48;85326.53;;;18.65;38.01
40948;BME280;49382;-25.924;28.194;2023-01-08T03:18:14;85334.59;;;16.19;41.95
40948;BME280;49382;-25.924;28.194;2023-01-08T03:20:37;85335.80;;;18.73;38.65
40948;BME280;49382;-25.924;28.194;2023-01-08T03:23:04;85340.66;;;19.62;36.68
40948;BME280;49382;-25.924;28.194;2023-01-08T03:25:28;85337.68;;;16.98;41.01
40948;BME280;49382;-25.924;28.194;2023-01-08T03:27:56;85340.56;;;17.93;39.70
40948;BME280;49382;-25.924;28.194;2023-01-08T03:30:20;85334.84;;;18.64;38.52
40948;BME280;49382;-25.924;28.194;2023-01-08T03:32:46;85335.38;;;19.65;36.62
40948;BME280;49382;-25.924;28.194;2023-01-08T03:35:12;85334.61;;;18.42;37.57
40948;BME280;49382;-25.924;28.194;2023-01-08T03:37:39;85341.38;;;17.63;39.37
40948;BME280;49382;-25.924;28.194;2023-01-08T03:40:05;85345.21;;;17.79;39.35
40948;BME280;49382;-25.924;28.194;2023-01-08T03:42:28;85350.44;;;17.84;39.42
40948;BME280;49382;-25.924;28.194;2023-01-08T03:44:53;85348.15;;;18.70;37.51
40948;BME280;49382;-25.924;28.194;2023-01-08T03:47:20;85351.85;;;19.67;36.86
40948;BME280;49382;-25.924;28.194;2023-01-08T03:49:45;85351.76;;;18.39;38.51
40948;BME280;49382;-25.924;28.194;2023-01-08T03:54:36;85350.45;;;17.39;38.85
40948;BME280;49382;-25.924;28.194;2023-01-08T03:57:02;85347.20;;;17.49;39.45
40948;BME280;49382;-25.924;28.194;2023-01-08T03:59:28;85351.90;;;16.71;40.74
40948;BME280;49382;-25.924;28.194;2023-01-08T04:01:53;85348.31;;;18.39;39.06
40948;BME280;49382;-25.924;28.194;2023-01-08T04:04:19;85354.14;;;16.32;41.42
40948;BME280;49382;-25.924;28.194;2023-01-08T04:06:44;85353.64;;;18.98;38.43
40948;BME280;49382;-25.924;28.194;2023-01-08T04:09:10;85359.64;;;16.48;40.85
40948;BME280;49382;-25.924;28.194;2023-01-08T04:11:36;85363.43;;;18.84;37.87
40948;BME280;49382;-25.924;28.194;2023-01-08T04:14:02;85371.88;;;17.70;39.41
40948;BME280;49382;-25.924;28.194;2023-01-08T04:16:27;85374.42;;;18.46;38.21
40948;BME280;49382;-25.924;28.194;2023-01-08T04:18:53;85374.19;;;17.71;39.52
40948;BME280;49382;-25.924;28.194;2023-01-08T04:21:19;85372.81;;;17.62;38.93
40948;BME280;49382;-25.924;28.194;2023-01-08T04:23:45;85381.81;;;17.05;40.29
40948;BME280;49382;-25.924;28.194;2023-01-08T04:26:11;85373.82;;;17.13;39.72
40948;BME280;49382;-25.924;28.194;2023-01-08T04:28:37;85377.47;;;17.03;40.05
40948;BME280;49382;-25.924;28.194;2023-01-08T04:31:05;85373.49;;;18.77;37.31
40948;BME280;49382;-25.924;28.194;2023-01-08T04:33:28;85372.64;;;18.00;38.66
40948;BME280;49382;-25.924;28.194;2023-01-08T04:35:54;85374.04;;;17.81;38.79
40948;BME280;49382;-25.924;28.194;2023-01-08T04:38:20;85374.79;;;17.46;39.72
40948;BME280;49382;-25.924;28.194;2023-01-08T04:40:45;85374.29;;;18.25;39.42
40948;BME280;49382;-25.924;28.194;2023-01-08T04:43:11;85375.18;;;19.40;36.65
40948;BME280;49382;-25.924;28.194;2023-01-08T04:45:36;85368.92;;;20.32;34.91
40948;BME280;49382;-25.924;28.194;2023-01-08T04:48:01;85371.87;;;19.62;35.68
40948;BME280;49382;-25.924;28.194;2023-01-08T04:50:27;85369.86;;;19.59;37.08
40948;BME280;49382;-25.924;28.194;2023-01-08T04:52:53;85371.64;;;19.38;37.66
40948;BME280;49382;-25.924;28.194;2023-01-08T04:55:19;85373.38;;;19.26;36.92
40948;BME280;49382;-25.924;28.194;2023-01-08T04:57:45;85379.27;;;19.79;36.43
40948;BME280;49382;-25.924;28.194;2023-01-08T05:00:11;85389.72;;;19.98;36.33
40948;BME280;49382;-25.924;28.194;2023-01-08T05:02:35;85387.35;;;18.38;38.01
40948;BME280;49382;-25.924;28.194;2023-01-08T05:05:01;85385.07;;;18.72;38.50
40948;BME280;49382;-25.924;28.194;2023-01-08T05:07:26;85386.76;;;18.83;38.95
40948;BME280;49382;-25.924;28.194;2023-01-08T05:09:52;85394.92;;;18.55;38.35
40948;BME280;49382;-25.924;28.194;2023-01-08T05:12:18;85390.52;;;19.41;37.16
40948;BME280;49382;-25.924;28.194;2023-01-08T05:14:44;85387.28;;;19.44;37.50
40948;BME280;49382;-25.924;28.194;2023-01-08T05:17:10;85384.78;;;17.54;41.20
40948;BME280;49382;-25.924;28.194;2023-01-08T05:19:35;85387.92;;;20.12;36.28
40948;BME280;49382;-25.924;28.194;2023-01-08T05:22:01;85388.50;;;18.85;38.12
40948;BME280;49382;-25.924;28.194;2023-01-08T05:24:27;85394.66;;;20.37;37.10
40948;BME280;49382;-25.924;28.194;2023-01-08T05:26:53;85396.08;;;18.96;38.78
40948;BME280;49382;-25.924;28.194;2023-01-08T05:29:19;85401.50;;;17.94;39.88
40948;BME280;49382;-25.924;28.194;2023-01-08T05:31:45;85392.06;;;20.70;36.57
40948;BME280;49382;-25.924;28.194;2023-01-08T05:34:10;85391.02;;;20.15;35.96
40948;BME280;49382;-25.924;28.194;2023-01-08T05:36:36;85388.90;;;17.98;39.51
40948;BME280;49382;-25.924;28.194;2023-01-08T05:39:02;85386.02;;;20.71;36.28
40948;BME280;49382;-25.924;28.194;2023-01-08T05:41:27;85388.67;;;19.35;38.49
40948;BME280;49382;-25.924;28.194;2023-01-08T05:43:53;85388.70;;;19.63;37.07
40948;BME280;49382;-25.924;28.194;2023-01-08T05:46:19;85389.51;;;21.11;36.21
40948;BME280;49382;-25.924;28.194;2023-01-08T05:48:45;85392.88;;;20.13;36.80
40948;BME280;49382;-25.924;28.194;2023-01-08T05:51:10;85386.82;;;20.59;36.40
40948;BME280;49382;-25.924;28.194;2023-01-08T05:53:36;85380.92;;;20.05;36.86
40948;BME280;49382;-25.924;28.194;2023-01-08T05:56:04;85385.06;;;19.63;38.43
40948;BME280;49382;-25.924;28.194;2023-01-08T05:58:27;85382.51;;;19.11;37.87
40948;BME280;49382;-25.924;28.194;2023-01-08T06:00:53;85384.83;;;18.43;39.58
40948;BME280;49382;-25.924;28.194;2023-01-08T06:03:20;85384.80;;;18.31;39.55
40948;BME280;49382;-25.924;28.194;2023-01-08T06:05:45;85392.40;;;19.21;38.88
40948;BME280;49382;-25.924;28.194;2023-01-08T06:08:10;85393.52;;;18.38;40.71
40948;BME280;49382;-25.924;28.194;2023-01-08T06:10:37;85397.12;;;19.64;38.45
40948;BME280;49382;-25.924;28.194;2023-01-08T06:13:04;85404.84;;;19.62;38.18
40948;BME280;49382;-25.924;28.194;2023-01-08T06:15:27;85411.13;;;20.49;36.77
40948;BME280;49382;-25.924;28.194;2023-01-08T06:17:52;85410.37;;;21.19;36.08
40948;BME280;49382;-25.924;28.194;2023-01-08T06:20:18;85408.48;;;18.92;38.65
40948;BME280;49382;-25.924;28.194;2023-01-08T06:22:43;85412.16;;;20.43;36.75
40948;BME280;49382;-25.924;28.194;2023-01-08T06:25:09;85416.27;;;19.20;38.76
40948;BME280;49382;-25.924;28.194;2023-01-08T06:27:33;85414.12;;;20.21;37.17
40948;BME280;49382;-25.924;28.194;2023-01-08T06:29:59;85412.70;;;19.93;36.98
40948;BME280;49382;-25.924;28.194;2023-01-08T06:32:24;85418.64;;;21.65;35.01
40948;BME280;49382;-25.924;28.194;2023-01-08T06:34:49;85415.40;;;18.52;39.32
40948;BME280;49382;-25.924;28.194;2023-01-08T06:37:14;85418.84;;;18.81;38.75
40948;BME280;49382;-25.924;28.194;2023-01-08T06:39:39;85415.61;;;20.58;36.73
40948;BME280;49382;-25.924;28.194;2023-01-08T06:42:05;85413.42;;;18.92;40.16
40948;BME280;49382;-25.924;28.194;2023-01-08T06:44:30;85419.04;;;20.93;36.85
40948;BME280;49382;-25.924;28.194;2023-01-08T06:46:55;85414.70;;;20.26;37.42
40948;BME280;49382;-25.924;28.194;2023-01-08T06:49:21;85412.22;;;20.20;37.81
40948;BME280;49382;-25.924;28.194;2023-01-08T06:51:46;85405.69;;;20.49;38.58
40948;BME280;49382;-25.924;28.194;2023-01-08T06:54:11;85407.47;;;20.41;38.70
40948;BME280;49382;-25.924;28.194;2023-01-08T06:56:37;85405.21;;;19.96;38.38
40948;BME280;49382;-25.924;28.194;2023-01-08T06:59:03;85404.13;;;19.16;39.63
40948;BME280;49382;-25.924;28.194;2023-01-08T07:01:29;85407.44;;;17.52;41.75
40948;BME280;49382;-25.924;28.194;2023-01-08T07:03:55;85400.88;;;19.01;39.65
40948;BME280;49382;-25.924;28.194;2023-01-08T07:06:22;85404.16;;;19.66;39.12
40948;BME280;49382;-25.924;28.194;2023-01-08T07:08:46;85401.42;;;21.56;35.55
40948;BME280;49382;-25.924;28.194;2023-01-08T07:11:12;85402.91;;;21.28;35.90
40948;BME280;49382;-25.924;28.194;2023-01-08T07:13:37;85399.23;;;19.10;38.15
40948;BME280;49382;-25.924;28.194;2023-01-08T07:16:06;85395.68;;;21.41;35.95
40948;BME280;49382;-25.924;28.194;2023-01-08T07:18:29;85392.07;;;21.64;35.36
40948;BME280;49382;-25.924;28.194;2023-01-08T07:20:54;85394.83;;;21.53;35.62
40948;BME280;49382;-25.924;28.194;2023-01-08T07:23:20;85389.24;;;20.05;37.19
40948;BME280;49382;-25.924;28.194;2023-01-08T07:25:46;85393.49;;;20.97;36.14
40948;BME280;49382;-25.924;28.194;2023-01-08T07:28:12;85395.27;;;20.78;36.21
40948;BME280;49382;-25.924;28.194;2023-01-08T07:30:37;85398.09;;;20.39;37.11
40948;BME280;49382;-25.924;28.194;2023-01-08T07:33:03;85401.18;;;19.24;37.70
40948;BME280;49382;-25.924;28.194;2023-01-08T07:35:29;85403.56;;;19.46;39.42
40948;BME280;49382;-25.924;28.194;2023-01-08T07:37:55;85403.09;;;19.57;38.47
40948;BME280;49382;-25.924;28.194;2023-01-08T07:40:21;85402.83;;;19.44;38.37
40948;BME280;49382;-25.924;28.194;2023-01-08T07:42:46;85405.35;;;20.47;36.91
40948;BME280;49382;-25.924;28.194;2023-01-08T07:45:12;85404.84;;;20.24;38.00
40948;BME280;49382;-25.924;28.194;2023-01-08T07:47:37;85410.25;;;21.31;36.95
40948;BME280;49382;-25.924;28.194;2023-01-08T07:50:04;85407.80;;;20.93;37.04
40948;BME280;49382;-25.924;28.194;2023-01-08T07:52:29;85401.21;;;19.83;38.44
40948;BME280;49382;-25.924;28.194;2023-01-08T07:54:55;85396.29;;;21.04;37.14
40948;BME280;49382;-25.924;28.194;2023-01-08T07:57:21;85396.92;;;20.38;40.13
40948;BME280;49382;-25.924;28.194;2023-01-08T07:59:46;85393.28;;;21.34;36.96
40948;BME280;49382;-25.924;28.194;2023-01-08T08:02:12;85391.21;;;20.52;38.69
40948;BME280;49382;-25.924;28.194;2023-01-08T08:04:38;85399.07;;;19.84;39.11
40948;BME280;49382;-25.924;28.194;2023-01-08T08:07:04;85404.76;;;21.38;39.48
40948;BME280;49382;-25.924;28.194;2023-01-08T08:09:29;85401.47;;;22.97;35.63
40948;BME280;49382;-25.924;28.194;2023-01-08T08:11:55;85397.07;;;20.53;36.60
40948;BME280;49382;-25.924;28.194;2023-01-08T08:14:20;85398.23;;;20.84;38.92
40948;BME280;49382;-25.924;28.194;2023-01-08T08:16:45;85396.84;;;20.01;40.12
40948;BME280;49382;-25.924;28.194;2023-01-08T08:19:11;85393.34;;;19.87;39.90
40948;BME280;49382;-25.924;28.194;2023-01-08T08:21:36;85404.55;;;21.19;41.82
40948;BME280;49382;-25.924;28.194;2023-01-08T08:24:02;85398.39;;;21.47;35.91
40948;BME280;49382;-25.924;28.194;2023-01-08T08:26:28;85401.12;;;20.72;37.10
40948;BME280;49382;-25.924;28.194;2023-01-08T08:28:53;85395.46;;;21.48;37.60
40948;BME280;49382;-25.924;28.194;2023-01-08T08:31:19;85394.27;;;24.53;33.42
40948;BME280;49382;-25.924;28.194;2023-01-08T08:33:44;85395.70;;;22.15;35.61
40948;BME280;49382;-25.924;28.194;2023-01-08T08:36:10;85384.42;;;21.16;36.93
40948;BME280;49382;-25.924;28.194;2023-01-08T08:38:37;85387.65;;;21.52;38.24
40948;BME280;49382;-25.924;28.194;2023-01-08T08:41:02;85384.24;;;22.02;39.22
40948;BME280;49382;-25.924;28.194;2023-01-08T08:43:27;85386.29;;;21.87;39.63
40948;BME280;49382;-25.924;28.194;2023-01-08T08:45:58;85386.39;;;22.27;38.27
40948;BME280;49382;-25.924;28.194;2023-01-08T08:48:19;85384.26;;;22.52;38.14
40948;BME280;49382;-25.924;28.194;2023-01-08T08:50:44;85377.29;;;21.79;38.79
40948;BME280;49382;-25.924;28.194;2023-01-08T08:53:10;85385.76;;;21.70;38.81
40948;BME280;49382;-25.924;28.194;2023-01-08T08:55:36;85382.75;;;23.06;35.59
40948;BME280;49382;-25.924;28.194;2023-01-08T08:58:06;85386.05;;;21.83;40.45
40948;BME280;49382;-25.924;28.194;2023-01-08T09:00:27;85382.51;;;22.67;37.37
40948;BME280;49382;-25.924;28.194;2023-01-08T09:02:52;85382.90;;;20.45;38.33
40948;BME280;49382;-25.924;28.194;2023-01-08T09:05:19;85380.70;;;22.61;35.33
40948;BME280;49382;-25.924;28.194;2023-01-08T09:07:45;85383.17;;;21.62;35.57
40948;BME280;49382;-25.924;28.194;2023-01-08T09:10:10;85381.70;;;21.54;35.99
40948;BME280;49382;-25.924;28.194;2023-01-08T09:12:35;85385.16;;;23.74;32.95
40948;BME280;49382;-25.924;28.194;2023-01-08T09:15:02;85378.42;;;25.06;31.87
40948;BME280;49382;-25.924;28.194;2023-01-08T09:17:27;85375.94;;;21.40;35.63
40948;BME280;49382;-25.924;28.194;2023-01-08T09:19:53;85377.49;;;21.95;35.71
40948;BME280;49382;-25.924;28.194;2023-01-08T09:22:19;85372.72;;;21.33;36.03
40948;BME280;49382;-25.924;28.194;2023-01-08T09:24:45;85371.30;;;20.21;38.30
40948;BME280;49382;-25.924;28.194;2023-01-08T09:27:10;85367.54;;;20.87;37.21
40948;BME280;49382;-25.924;28.194;2023-01-08T09:29:36;85368.60;;;21.53;36.57
40948;BME280;49382;-25.924;28.194;2023-01-08T09:32:04;85372.79;;;22.08;36.36
40948;BME280;49382;-25.924;28.194;2023-01-08T09:34:27;85367.49;;;21.32;36.67
40948;BME280;49382;-25.924;28.194;2023-01-08T09:36:54;85361.78;;;21.28;37.38
40948;BME280;49382;-25.924;28.194;2023-01-08T09:39:19;85362.30;;;21.87;37.17
40948;BME280;49382;-25.924;28.194;2023-01-08T09:41:46;85362.41;;;23.18;34.75
40948;BME280;49382;-25.924;28.194;2023-01-08T09:44:15;85361.07;;;22.91;33.64
40948;BME280;49382;-25.924;28.194;2023-01-08T09:46:36;85357.92;;;24.42;33.19
40948;BME280;49382;-25.924;28.194;2023-01-08T09:49:05;85358.91;;;21.26;36.74
40948;BME280;49382;-25.924;28.194;2023-01-08T09:51:33;85358.58;;;24.31;32.80
40948;BME280;49382;-25.924;28.194;2023-01-08T09:53:55;85360.55;;;23.86;33.14
40948;BME280;49382;-25.924;28.194;2023-01-08T09:56:19;85356.76;;;21.24;35.85
40948;BME280;49382;-25.924;28.194;2023-01-08T09:58:47;85356.23;;;23.14;34.05
40948;BME280;49382;-25.924;28.194;2023-01-08T10:01:12;85351.66;;;20.75;39.11
40948;BME280;49382;-25.924;28.194;2023-01-08T10:03:40;85352.18;;;21.60;37.36
40948;BME280;49382;-25.924;28.194;2023-01-08T10:06:03;85349.20;;;21.51;37.14
40948;BME280;49382;-25.924;28.194;2023-01-08T10:08:26;85348.84;;;21.36;37.43
40948;BME280;49382;-25.924;28.194;2023-01-08T10:10:52;85348.88;;;22.09;39.09
40948;BME280;49382;-25.924;28.194;2023-01-08T10:13:17;85345.93;;;22.46;36.02
40948;BME280;49382;-25.924;28.194;2023-01-08T10:15:43;85347.61;;;23.24;35.09
40948;BME280;49382;-25.924;28.194;2023-01-08T10:18:12;85344.81;;;21.58;37.27
40948;BME280;49382;-25.924;28.194;2023-01-08T10:20:34;85343.77;;;22.44;36.58
40948;BME280;49382;-25.924;28.194;2023-01-08T10:23:08;85338.04;;;22.28;35.93
40948;BME280;49382;-25.924;28.194;2023-01-08T10:25:27;85338.81;;;21.94;36.63
40948;BME280;49382;-25.924;28.194;2023-01-08T10:27:53;85335.77;;;22.22;37.47
40948;BME280;49382;-25.924;28.194;2023-01-08T10:30:19;85335.26;;;22.02;37.23
40948;BME280;49382;-25.924;28.194;2023-01-08T10:32:47;85333.85;;;21.92;36.12
40948;BME280;49382;-25.924;28.194;2023-01-08T10:35:14;85334.12;;;25.59;32.08
40948;BME280;49382;-25.924;28.194;2023-01-08T10:37:39;85331.37;;;22.42;36.68
40948;BME280;49382;-25.924;28.194;2023-01-08T10:40:03;85330.30;;;22.69;36.27
40948;BME280;49382;-25.924;28.194;2023-01-08T10:42:26;85328.11;;;22.74;35.48
40948;BME280;49382;-25.924;28.194;2023-01-08T10:44:55;85323.82;;;21.40;37.46
40948;BME280;49382;-25.924;28.194;2023-01-08T10:47:18;85322.35;;;22.04;36.69
40948;BME280;49382;-25.924;28.194;2023-01-08T10:49:43;85318.94;;;24.24;34.57
40948;BME280;49382;-25.924;28.194;2023-01-08T10:54:36;85312.79;;;23.93;37.95
40948;BME280;49382;-25.924;28.194;2023-01-08T10:56:58;85314.88;;;23.12;36.77
40948;BME280;49382;-25.924;28.194;2023-01-08T10:59:24;85308.67;;;24.22;34.94
40948;BME280;49382;-25.924;28.194;2023-01-08T11:01:51;85307.57;;;22.41;37.29
40948;BME280;49382;-25.924;28.194;2023-01-08T11:04:22;85304.53;;;22.89;36.62
40948;BME280;49382;-25.924;28.194;2023-01-08T11:06:42;85302.79;;;23.48;37.24
40948;BME280;49382;-25.924;28.194;2023-01-08T11:09:15;85301.49;;;22.01;37.38
40948;BME280;49382;-25.924;28.194;2023-01-08T11:11:34;85297.88;;;24.42;35.79
40948;BME280;49382;-25.924;28.194;2023-01-08T11:13:58;85298.36;;;25.82;33.80
40948;BME280;49382;-25.924;28.194;2023-01-08T11:16:28;85296.92;;;23.50;37.45
40948;BME280;49382;-25.924;28.194;2023-01-08T11:18:49;85296.31;;;21.81;37.76
40948;BME280;49382;-25.924;28.194;2023-01-08T11:21:19;85292.95;;;22.32;37.18
40948;BME280;49382;-25.924;28.194;2023-01-08T11:23:40;85292.87;;;21.62;38.25
40948;BME280;49382;-25.924;28.194;2023-01-08T11:26:09;85290.47;;;22.23;38.00
40948;BME280;49382;-25.924;28.194;2023-01-08T11:28:39;85288.55;;;21.90;39.38
40948;BME280;49382;-25.924;28.194;2023-01-08T11:31:13;85284.10;;;22.28;37.15
40948;BME280;49382;-25.924;28.194;2023-01-08T11:33:24;85284.04;;;22.90;36.89
40948;BME280;49382;-25.924;28.194;2023-01-08T11:35:51;85283.61;;;22.01;38.13
40948;BME280;49382;-25.924;28.194;2023-01-08T11:38:13;85283.18;;;22.67;37.99
40948;BME280;49382;-25.924;28.194;2023-01-08T11:40:43;85279.87;;;23.08;36.35
40948;BME280;49382;-25.924;28.194;2023-01-08T11:43:15;85275.06;;;23.22;36.11
40948;BME280;49382;-25.924;28.194;2023-01-08T11:45:37;85275.64;;;22.33;37.34
40948;BME280;49382;-25.924;28.194;2023-01-08T11:50:25;85274.46;;;21.89;38.45
40948;BME280;49382;-25.924;28.194;2023-01-08T11:52:58;85268.68;;;23.27;36.57
40948;BME280;49382;-25.924;28.194;2023-01-08T11:55:20;85268.36;;;23.47;36.32
40948;BME280;49382;-25.924;28.194;2023-01-08T11:57:46;85271.02;;;22.49;37.43
40948;BME280;49382;-25.924;28.194;2023-01-08T12:00:13;85269.22;;;22.37;37.55
40948;BME280;49382;-25.924;28.194;2023-01-08T12:02:38;85269.42;;;22.86;37.22
40948;BME280;49382;-25.924;28.194;2023-01-08T12:07:26;85268.59;;;22.84;37.96
40948;BME280;49382;-25.924;28.194;2023-01-08T12:09:49;85264.75;;;22.07;38.49
40948;BME280;49382;-25.924;28.194;2023-01-08T12:12:22;85262.41;;;22.10;38.40
40948;BME280;49382;-25.924;28.194;2023-01-08T12:14:47;85259.48;;;22.56;37.32
40948;BME280;49382;-25.924;28.194;2023-01-08T12:17:18;85257.30;;;21.40;38.82
40948;BME280;49382;-25.924;28.194;2023-01-08T12:19:40;85258.22;;;22.38;37.79
40948;BME280;49382;-25.924;28.194;2023-01-08T12:22:05;85250.68;;;23.15;37.14
40948;BME280;49382;-25.924;28.194;2023-01-08T12:24:33;85251.57;;;22.85;37.74
40948;BME280;49382;-25.924;28.194;2023-01-08T12:26:53;85246.40;;;23.17;37.15
40948;BME280;49382;-25.924;28.194;2023-01-08T12:29:25;85247.03;;;22.13;38.26
40948;BME280;49382;-25.924;28.194;2023-01-08T12:31:44;85240.91;;;22.69;39.08
40948;BME280;49382;-25.924;28.194;2023-01-08T12:34:06;85238.98;;;22.35;39.04
40948;BME280;49382;-25.924;28.194;2023-01-08T12:36:36;85228.60;;;22.78;37.58
40948;BME280;49382;-25.924;28.194;2023-01-08T12:38:59;85225.50;;;22.47;38.01
40948;BME280;49382;-25.924;28.194;2023-01-08T12:41:21;85230.28;;;23.28;38.19